sensor_id;sensor_type;location;lat;lon;timestamp;temperature;humidity
7900;DHT22;3995;50.856;4.404;2022-07-12T00:00:54;25.50;51.60
7900;DHT22;3995;50.856;4.404;2022-07-12T00:03:22;25.50;51.70
7900;DHT22;3995;50.856;4.404;2022-07-12T00:05:49;25.40;51.70
7900;DHT22;3995;50.856;4.404;2022-07-12T00:08:17;25.40;51.70
7900;DHT22;3995;50.856;4.404;2022-07-12T00:10:46;25.40;51.90
7900;DHT22;3995;50.856;4.404;2022-07-12T00:13:13;25.40;51.90
7900;DHT22;3995;50.856;4.404;2022-07-12T00:15:41;25.40;52.50
7900;DHT22;3995;50.856;4.404;2022-07-12T00:18:09;25.40;52.00
7900;DHT22;3995;50.856;4.404;2022-07-12T00:20:36;25.30;52.00
7900;DHT22;3995;50.856;4.404;2022-07-12T00:23:04;25.30;52.10
7900;DHT22;3995;50.856;4.404;2022-07-12T00:25:31;25.30;52.10
7900;DHT22;3995;50.856;4.404;2022-07-12T00:28:01;25.30;52.20
7900;DHT22;3995;50.856;4.404;2022-07-12T00:30:28;25.30;52.20
7900;DHT22;3995;50.856;4.404;2022-07-12T00:32:55;25.20;52.20
7900;DHT22;3995;50.856;4.404;2022-07-12T00:35:23;25.20;52.20
7900;DHT22;3995;50.856;4.404;2022-07-12T00:37:50;25.20;52.30
7900;DHT22;3995;50.856;4.404;2022-07-12T00:40:18;25.10;52.30
7900;DHT22;3995;50.856;4.404;2022-07-12T00:42:45;25.20;52.40
7900;DHT22;3995;50.856;4.404;2022-07-12T00:45:14;25.10;52.40
7900;DHT22;3995;50.856;4.404;2022-07-12T00:47:44;25.10;52.30
7900;DHT22;3995;50.856;4.404;2022-07-12T00:50:12;25.10;52.40
7900;DHT22;3995;50.856;4.404;2022-07-12T00:52:41;25.10;52.50
7900;DHT22;3995;50.856;4.404;2022-07-12T00:55:09;25.10;52.50
7900;DHT22;3995;50.856;4.404;2022-07-12T00:57:38;25.00;52.40
7900;DHT22;3995;50.856;4.404;2022-07-12T01:00:07;25.00;52.40
7900;DHT22;3995;50.856;4.404;2022-07-12T01:02:36;25.00;52.40
7900;DHT22;3995;50.856;4.404;2022-07-12T01:05:05;25.00;52.40
7900;DHT22;3995;50.856;4.404;2022-07-12T01:07:33;25.00;52.50
7900;DHT22;3995;50.856;4.404;2022-07-12T01:10:03;25.00;52.50
7900;DHT22;3995;50.856;4.404;2022-07-12T01:12:30;24.90;53.00
7900;DHT22;3995;50.856;4.404;2022-07-12T01:14:58;24.90;52.40
7900;DHT22;3995;50.856;4.404;2022-07-12T01:17:27;24.90;52.50
7900;DHT22;3995;50.856;4.404;2022-07-12T01:19:59;24.90;52.50
7900;DHT22;3995;50.856;4.404;2022-07-12T01:22:29;24.90;52.50
7900;DHT22;3995;50.856;4.404;2022-07-12T01:24:59;24.90;52.50
7900;DHT22;3995;50.856;4.404;2022-07-12T01:27:27;24.90;52.50
7900;DHT22;3995;50.856;4.404;2022-07-12T01:29:55;24.80;52.40
7900;DHT22;3995;50.856;4.404;2022-07-12T01:32:23;24.80;52.50
7900;DHT22;3995;50.856;4.404;2022-07-12T01:34:55;24.80;52.50
7900;DHT22;3995;50.856;4.404;2022-07-12T01:37:24;24.80;52.50
7900;DHT22;3995;50.856;4.404;2022-07-12T01:39:53;24.70;52.40
7900;DHT22;3995;50.856;4.404;2022-07-12T01:42:22;24.80;52.50
7900;DHT22;3995;50.856;4.404;2022-07-12T01:44:50;24.70;52.40
7900;DHT22;3995;50.856;4.404;2022-07-12T01:47:17;24.70;52.40
7900;DHT22;3995;50.856;4.404;2022-07-12T01:49:45;24.70;52.50
7900;DHT22;3995;50.856;4.404;2022-07-12T01:52:12;24.70;52.40
7900;DHT22;3995;50.856;4.404;2022-07-12T01:54:41;24.70;52.40
7900;DHT22;3995;50.856;4.404;2022-07-12T01:57:08;24.60;52.30
7900;DHT22;3995;50.856;4.404;2022-07-12T01:59:51;24.60;52.40
7900;DHT22;3995;50.856;4.404;2022-07-12T02:02:19;24.60;52.50
7900;DHT22;3995;50.856;4.404;2022-07-12T02:04:46;24.60;52.50
7900;DHT22;3995;50.856;4.404;2022-07-12T02:07:15;24.60;52.50
7900;DHT22;3995;50.856;4.404;2022-07-12T02:09:42;24.60;52.50
7900;DHT22;3995;50.856;4.404;2022-07-12T02:12:09;24.50;52.40
7900;DHT22;3995;50.856;4.404;2022-07-12T02:14:36;24.50;52.40
7900;DHT22;3995;50.856;4.404;2022-07-12T02:17:05;24.50;52.40
7900;DHT22;3995;50.856;4.404;2022-07-12T02:19:32;24.50;52.40
7900;DHT22;3995;50.856;4.404;2022-07-12T02:22:00;24.50;52.50
7900;DHT22;3995;50.856;4.404;2022-07-12T02:24:27;24.50;52.50
7900;DHT22;3995;50.856;4.404;2022-07-12T02:26:55;24.50;52.50
7900;DHT22;3995;50.856;4.404;2022-07-12T02:29:22;24.50;52.50
7900;DHT22;3995;50.856;4.404;2022-07-12T02:31:51;24.50;52.50
7900;DHT22;3995;50.856;4.404;2022-07-12T02:34:21;24.40;52.50
7900;DHT22;3995;50.856;4.404;2022-07-12T02:36:49;24.40;52.40
7900;DHT22;3995;50.856;4.404;2022-07-12T02:39:16;24.40;52.50
7900;DHT22;3995;50.856;4.404;2022-07-12T02:41:43;24.40;52.50
7900;DHT22;3995;50.856;4.404;2022-07-12T02:44:12;24.40;52.50
7900;DHT22;3995;50.856;4.404;2022-07-12T02:46:39;24.40;52.50
7900;DHT22;3995;50.856;4.404;2022-07-12T02:49:06;24.40;52.50
7900;DHT22;3995;50.856;4.404;2022-07-12T02:51:35;24.30;52.50
7900;DHT22;3995;50.856;4.404;2022-07-12T02:54:03;24.30;52.50
7900;DHT22;3995;50.856;4.404;2022-07-12T02:56:30;24.30;52.50
7900;DHT22;3995;50.856;4.404;2022-07-12T02:58:57;24.30;52.50
7900;DHT22;3995;50.856;4.404;2022-07-12T03:01:25;24.30;52.60
7900;DHT22;3995;50.856;4.404;2022-07-12T03:03:52;24.30;52.60
7900;DHT22;3995;50.856;4.404;2022-07-12T03:06:19;24.20;53.20
7900;DHT22;3995;50.856;4.404;2022-07-12T03:08:54;24.20;52.60
7900;DHT22;3995;50.856;4.404;2022-07-12T03:11:25;24.20;52.60
7900;DHT22;3995;50.856;4.404;2022-07-12T03:13:53;24.10;52.70
7900;DHT22;3995;50.856;4.404;2022-07-12T03:16:19;24.10;52.80
7900;DHT22;3995;50.856;4.404;2022-07-12T03:18:47;24.10;52.80
7900;DHT22;3995;50.856;4.404;2022-07-12T03:21:14;24.10;52.80
7900;DHT22;3995;50.856;4.404;2022-07-12T03:23:42;24.10;52.90
7900;DHT22;3995;50.856;4.404;2022-07-12T03:26:12;24.10;52.90
7900;DHT22;3995;50.856;4.404;2022-07-12T03:28:39;24.10;52.90
7900;DHT22;3995;50.856;4.404;2022-07-12T03:31:06;24.00;52.90
7900;DHT22;3995;50.856;4.404;2022-07-12T03:33:33;24.00;53.50
7900;DHT22;3995;50.856;4.404;2022-07-12T03:36:01;24.00;52.90
7900;DHT22;3995;50.856;4.404;2022-07-12T03:38:32;24.00;52.90
7900;DHT22;3995;50.856;4.404;2022-07-12T03:40:59;24.00;52.90
7900;DHT22;3995;50.856;4.404;2022-07-12T03:43:28;24.00;52.90
7900;DHT22;3995;50.856;4.404;2022-07-12T03:45:58;24.00;52.90
7900;DHT22;3995;50.856;4.404;2022-07-12T03:48:25;24.00;53.00
7900;DHT22;3995;50.856;4.404;2022-07-12T03:50:52;24.00;53.00
7900;DHT22;3995;50.856;4.404;2022-07-12T03:53:19;24.00;53.00
7900;DHT22;3995;50.856;4.404;2022-07-12T03:55:46;23.90;53.00
7900;DHT22;3995;50.856;4.404;2022-07-12T03:58:16;23.90;53.00
7900;DHT22;3995;50.856;4.404;2022-07-12T04:00:44;23.90;53.10
7900;DHT22;3995;50.856;4.404;2022-07-12T04:03:12;23.90;53.10
7900;DHT22;3995;50.856;4.404;2022-07-12T04:05:39;23.90;53.10
7900;DHT22;3995;50.856;4.404;2022-07-12T04:08:07;23.90;53.00
7900;DHT22;3995;50.856;4.404;2022-07-12T04:10:35;23.90;53.10
7900;DHT22;3995;50.856;4.404;2022-07-12T04:13:02;23.90;53.10
7900;DHT22;3995;50.856;4.404;2022-07-12T04:15:32;23.90;53.10
7900;DHT22;3995;50.856;4.404;2022-07-12T04:18:01;23.90;53.10
7900;DHT22;3995;50.856;4.404;2022-07-12T04:20:28;23.90;53.10
7900;DHT22;3995;50.856;4.404;2022-07-12T04:22:55;23.80;53.10
7900;DHT22;3995;50.856;4.404;2022-07-12T04:25:23;23.90;53.10
7900;DHT22;3995;50.856;4.404;2022-07-12T04:27:50;23.90;53.00
7900;DHT22;3995;50.856;4.404;2022-07-12T04:30:18;23.80;52.90
7900;DHT22;3995;50.856;4.404;2022-07-12T04:32:46;23.80;52.80
7900;DHT22;3995;50.856;4.404;2022-07-12T04:35:15;23.80;52.70
7900;DHT22;3995;50.856;4.404;2022-07-12T04:37:42;23.80;52.70
7900;DHT22;3995;50.856;4.404;2022-07-12T04:40:11;23.80;52.70
7900;DHT22;3995;50.856;4.404;2022-07-12T04:42:38;23.90;52.80
7900;DHT22;3995;50.856;4.404;2022-07-12T04:45:07;23.90;52.70
7900;DHT22;3995;50.856;4.404;2022-07-12T04:47:35;23.90;52.60
7900;DHT22;3995;50.856;4.404;2022-07-12T04:50:04;23.90;52.50
7900;DHT22;3995;50.856;4.404;2022-07-12T04:52:33;23.90;52.50
7900;DHT22;3995;50.856;4.404;2022-07-12T04:55:01;23.90;52.50
7900;DHT22;3995;50.856;4.404;2022-07-12T04:57:28;23.90;52.40
7900;DHT22;3995;50.856;4.404;2022-07-12T04:59:55;23.90;52.30
7900;DHT22;3995;50.856;4.404;2022-07-12T05:02:22;24.00;52.40
7900;DHT22;3995;50.856;4.404;2022-07-12T05:04:49;24.00;52.90
7900;DHT22;3995;50.856;4.404;2022-07-12T05:07:17;24.00;52.30
7900;DHT22;3995;50.856;4.404;2022-07-12T05:09:46;24.00;52.10
7900;DHT22;3995;50.856;4.404;2022-07-12T05:12:14;24.00;52.00
7900;DHT22;3995;50.856;4.404;2022-07-12T05:14:41;24.10;52.10
7900;DHT22;3995;50.856;4.404;2022-07-12T05:17:08;24.10;52.10
7900;DHT22;3995;50.856;4.404;2022-07-12T05:19:36;24.10;52.00
7900;DHT22;3995;50.856;4.404;2022-07-12T05:22:04;24.10;51.90
7900;DHT22;3995;50.856;4.404;2022-07-12T05:24:31;24.10;52.00
7900;DHT22;3995;50.856;4.404;2022-07-12T05:27:00;24.20;52.00
7900;DHT22;3995;50.856;4.404;2022-07-12T05:29:27;24.20;51.90
7900;DHT22;3995;50.856;4.404;2022-07-12T05:31:55;24.20;51.80
7900;DHT22;3995;50.856;4.404;2022-07-12T05:34:22;24.20;51.80
7900;DHT22;3995;50.856;4.404;2022-07-12T05:36:49;24.20;51.90
7900;DHT22;3995;50.856;4.404;2022-07-12T05:39:16;24.20;51.70
7900;DHT22;3995;50.856;4.404;2022-07-12T05:41:44;24.20;51.70
7900;DHT22;3995;50.856;4.404;2022-07-12T05:44:13;24.30;51.60
7900;DHT22;3995;50.856;4.404;2022-07-12T05:46:42;24.30;51.60
7900;DHT22;3995;50.856;4.404;2022-07-12T05:49:09;24.30;51.50
7900;DHT22;3995;50.856;4.404;2022-07-12T05:51:36;24.30;51.50
7900;DHT22;3995;50.856;4.404;2022-07-12T05:54:20;24.30;51.40
7900;DHT22;3995;50.856;4.404;2022-07-12T05:56:47;24.30;51.50
7900;DHT22;3995;50.856;4.404;2022-07-12T05:59:18;24.30;51.30
7900;DHT22;3995;50.856;4.404;2022-07-12T06:01:45;24.30;51.30
7900;DHT22;3995;50.856;4.404;2022-07-12T06:04:12;24.30;51.70
7900;DHT22;3995;50.856;4.404;2022-07-12T06:06:40;24.30;51.20
7900;DHT22;3995;50.856;4.404;2022-07-12T06:09:08;24.30;51.10
7900;DHT22;3995;50.856;4.404;2022-07-12T06:11:35;24.40;51.20
7900;DHT22;3995;50.856;4.404;2022-07-12T06:14:03;24.40;51.20
7900;DHT22;3995;50.856;4.404;2022-07-12T06:16:32;24.40;51.00
7900;DHT22;3995;50.856;4.404;2022-07-12T06:18:59;24.40;50.70
7900;DHT22;3995;50.856;4.404;2022-07-12T06:21:26;24.40;50.40
7900;DHT22;3995;50.856;4.404;2022-07-12T06:23:54;24.50;50.60
7900;DHT22;3995;50.856;4.404;2022-07-12T06:26:20;24.50;50.60
7900;DHT22;3995;50.856;4.404;2022-07-12T06:28:48;24.50;50.60
7900;DHT22;3995;50.856;4.404;2022-07-12T06:31:15;24.50;50.70
7900;DHT22;3995;50.856;4.404;2022-07-12T06:33:44;24.50;51.10
7900;DHT22;3995;50.856;4.404;2022-07-12T06:36:12;24.50;50.60
7900;DHT22;3995;50.856;4.404;2022-07-12T06:38:39;24.50;50.60
7900;DHT22;3995;50.856;4.404;2022-07-12T06:41:06;24.60;50.80
7900;DHT22;3995;50.856;4.404;2022-07-12T06:43:33;24.50;50.70
7900;DHT22;3995;50.856;4.404;2022-07-12T06:46:00;24.50;50.70
7900;DHT22;3995;50.856;4.404;2022-07-12T06:48:28;24.60;51.10
7900;DHT22;3995;50.856;4.404;2022-07-12T06:50:57;24.60;51.30
7900;DHT22;3995;50.856;4.404;2022-07-12T06:53:24;24.60;51.20
7900;DHT22;3995;50.856;4.404;2022-07-12T06:55:52;24.60;50.90
7900;DHT22;3995;50.856;4.404;2022-07-12T06:58:19;24.60;50.90
7900;DHT22;3995;50.856;4.404;2022-07-12T07:00:46;24.70;51.10
7900;DHT22;3995;50.856;4.404;2022-07-12T07:06:06;24.70;50.30
7900;DHT22;3995;50.856;4.404;2022-07-12T07:08:34;24.70;50.20
7900;DHT22;3995;50.856;4.404;2022-07-12T07:11:01;24.70;50.30
7900;DHT22;3995;50.856;4.404;2022-07-12T07:13:28;24.70;50.20
7900;DHT22;3995;50.856;4.404;2022-07-12T07:15:55;24.70;50.30
7900;DHT22;3995;50.856;4.404;2022-07-12T07:18:23;24.80;50.20
7900;DHT22;3995;50.856;4.404;2022-07-12T07:20:50;24.80;49.90
7900;DHT22;3995;50.856;4.404;2022-07-12T07:23:20;24.80;50.10
7900;DHT22;3995;50.856;4.404;2022-07-12T07:25:47;24.80;50.40
7900;DHT22;3995;50.856;4.404;2022-07-12T07:28:15;24.80;50.10
7900;DHT22;3995;50.856;4.404;2022-07-12T07:30:42;24.90;50.40
7900;DHT22;3995;50.856;4.404;2022-07-12T07:33:20;24.90;49.80
7900;DHT22;3995;50.856;4.404;2022-07-12T07:35:48;24.90;49.60
7900;DHT22;3995;50.856;4.404;2022-07-12T07:38:16;24.90;49.50
7900;DHT22;3995;50.856;4.404;2022-07-12T07:40:45;24.90;49.40
7900;DHT22;3995;50.856;4.404;2022-07-12T07:43:13;24.90;49.40
7900;DHT22;3995;50.856;4.404;2022-07-12T07:45:40;24.90;49.60
7900;DHT22;3995;50.856;4.404;2022-07-12T07:48:07;25.00;49.70
7900;DHT22;3995;50.856;4.404;2022-07-12T07:50:34;25.00;49.60
7900;DHT22;3995;50.856;4.404;2022-07-12T07:53:02;25.00;49.30
7900;DHT22;3995;50.856;4.404;2022-07-12T07:55:30;25.10;49.40
7900;DHT22;3995;50.856;4.404;2022-07-12T07:57:59;25.10;49.00
7900;DHT22;3995;50.856;4.404;2022-07-12T08:00:26;25.10;49.00
7900;DHT22;3995;50.856;4.404;2022-07-12T08:02:54;25.10;49.20
7900;DHT22;3995;50.856;4.404;2022-07-12T08:05:21;25.10;49.20
7900;DHT22;3995;50.856;4.404;2022-07-12T08:07:49;25.10;49.00
7900;DHT22;3995;50.856;4.404;2022-07-12T08:10:16;25.10;48.60
7900;DHT22;3995;50.856;4.404;2022-07-12T08:12:43;25.10;49.00
7900;DHT22;3995;50.856;4.404;2022-07-12T08:15:12;25.10;49.00
7900;DHT22;3995;50.856;4.404;2022-07-12T08:17:39;25.20;49.00
7900;DHT22;3995;50.856;4.404;2022-07-12T08:20:08;25.20;49.00
7900;DHT22;3995;50.856;4.404;2022-07-12T08:22:42;25.20;48.90
7900;DHT22;3995;50.856;4.404;2022-07-12T08:25:10;25.20;48.40
7900;DHT22;3995;50.856;4.404;2022-07-12T08:27:37;25.20;48.30
7900;DHT22;3995;50.856;4.404;2022-07-12T08:30:05;25.20;48.60
7900;DHT22;3995;50.856;4.404;2022-07-12T08:32:34;25.20;49.00
7900;DHT22;3995;50.856;4.404;2022-07-12T08:35:02;25.20;49.30
7900;DHT22;3995;50.856;4.404;2022-07-12T08:37:29;25.20;49.10
7900;DHT22;3995;50.856;4.404;2022-07-12T08:39:56;25.30;49.50
7900;DHT22;3995;50.856;4.404;2022-07-12T08:42:23;25.30;50.00
7900;DHT22;3995;50.856;4.404;2022-07-12T08:44:54;25.30;49.90
7900;DHT22;3995;50.856;4.404;2022-07-12T08:47:21;25.30;48.70
7900;DHT22;3995;50.856;4.404;2022-07-12T08:50:13;25.30;48.40
7900;DHT22;3995;50.856;4.404;2022-07-12T08:52:41;25.40;48.20
7900;DHT22;3995;50.856;4.404;2022-07-12T08:55:27;25.30;48.50
7900;DHT22;3995;50.856;4.404;2022-07-12T08:57:56;25.40;48.70
7900;DHT22;3995;50.856;4.404;2022-07-12T09:00:24;25.30;49.50
7900;DHT22;3995;50.856;4.404;2022-07-12T09:02:53;25.30;48.90
7900;DHT22;3995;50.856;4.404;2022-07-12T09:05:24;25.40;49.20
7900;DHT22;3995;50.856;4.404;2022-07-12T09:07:51;25.40;48.50
7900;DHT22;3995;50.856;4.404;2022-07-12T09:10:28;25.40;48.70
7900;DHT22;3995;50.856;4.404;2022-07-12T09:12:55;25.40;48.30
7900;DHT22;3995;50.856;4.404;2022-07-12T09:15:23;25.40;48.20
7900;DHT22;3995;50.856;4.404;2022-07-12T09:17:58;25.40;48.10
7900;DHT22;3995;50.856;4.404;2022-07-12T09:20:28;25.50;47.90
7900;DHT22;3995;50.856;4.404;2022-07-12T09:22:57;25.50;48.00
7900;DHT22;3995;50.856;4.404;2022-07-12T09:25:25;25.50;48.30
7900;DHT22;3995;50.856;4.404;2022-07-12T09:27:54;25.60;47.80
7900;DHT22;3995;50.856;4.404;2022-07-12T09:30:24;25.50;48.10
7900;DHT22;3995;50.856;4.404;2022-07-12T09:32:54;25.50;48.20
7900;DHT22;3995;50.856;4.404;2022-07-12T09:35:42;25.50;49.10
7900;DHT22;3995;50.856;4.404;2022-07-12T09:38:27;25.60;48.70
7900;DHT22;3995;50.856;4.404;2022-07-12T09:40:55;25.60;48.20
7900;DHT22;3995;50.856;4.404;2022-07-12T09:43:23;25.60;48.60
7900;DHT22;3995;50.856;4.404;2022-07-12T09:45:50;25.60;48.40
7900;DHT22;3995;50.856;4.404;2022-07-12T09:48:19;25.60;48.40
7900;DHT22;3995;50.856;4.404;2022-07-12T09:50:50;25.60;48.50
7900;DHT22;3995;50.856;4.404;2022-07-12T09:53:21;25.70;48.80
7900;DHT22;3995;50.856;4.404;2022-07-12T09:55:52;25.70;47.60
7900;DHT22;3995;50.856;4.404;2022-07-12T09:58:23;25.70;48.00
7900;DHT22;3995;50.856;4.404;2022-07-12T10:00:53;25.70;48.30
7900;DHT22;3995;50.856;4.404;2022-07-12T10:03:21;25.70;49.20
7900;DHT22;3995;50.856;4.404;2022-07-12T10:05:52;25.70;48.30
7900;DHT22;3995;50.856;4.404;2022-07-12T10:08:20;25.80;49.10
7900;DHT22;3995;50.856;4.404;2022-07-12T10:10:48;25.80;49.10
7900;DHT22;3995;50.856;4.404;2022-07-12T10:13:16;25.80;48.30
7900;DHT22;3995;50.856;4.404;2022-07-12T10:15:46;25.90;47.90
7900;DHT22;3995;50.856;4.404;2022-07-12T10:18:18;25.90;47.60
7900;DHT22;3995;50.856;4.404;2022-07-12T10:20:46;26.00;47.70
7900;DHT22;3995;50.856;4.404;2022-07-12T10:23:37;26.00;48.40
7900;DHT22;3995;50.856;4.404;2022-07-12T10:26:37;26.00;48.90
7900;DHT22;3995;50.856;4.404;2022-07-12T10:29:07;26.00;48.60
7900;DHT22;3995;50.856;4.404;2022-07-12T10:31:37;26.00;47.50
7900;DHT22;3995;50.856;4.404;2022-07-12T10:34:09;26.00;47.70
7900;DHT22;3995;50.856;4.404;2022-07-12T10:37:09;26.00;48.20
7900;DHT22;3995;50.856;4.404;2022-07-12T10:40:12;26.00;49.30
7900;DHT22;3995;50.856;4.404;2022-07-12T10:42:40;26.00;48.80
7900;DHT22;3995;50.856;4.404;2022-07-12T10:45:13;26.00;48.90
7900;DHT22;3995;50.856;4.404;2022-07-12T10:47:53;26.10;48.30
7900;DHT22;3995;50.856;4.404;2022-07-12T10:50:52;26.10;47.80
7900;DHT22;3995;50.856;4.404;2022-07-12T10:53:29;26.20;48.30
7900;DHT22;3995;50.856;4.404;2022-07-12T10:56:20;26.10;49.00
7900;DHT22;3995;50.856;4.404;2022-07-12T10:58:48;26.20;48.10
7900;DHT22;3995;50.856;4.404;2022-07-12T11:01:19;26.10;47.90
7900;DHT22;3995;50.856;4.404;2022-07-12T11:03:48;26.20;47.90
7900;DHT22;3995;50.856;4.404;2022-07-12T11:06:17;26.20;48.20
7900;DHT22;3995;50.856;4.404;2022-07-12T11:08:49;26.30;47.20
7900;DHT22;3995;50.856;4.404;2022-07-12T11:11:19;26.30;47.40
7900;DHT22;3995;50.856;4.404;2022-07-12T11:13:47;26.30;47.40
7900;DHT22;3995;50.856;4.404;2022-07-12T11:16:15;26.40;47.60
7900;DHT22;3995;50.856;4.404;2022-07-12T11:18:43;26.40;47.60
7900;DHT22;3995;50.856;4.404;2022-07-12T11:21:11;26.40;47.50
7900;DHT22;3995;50.856;4.404;2022-07-12T11:23:41;26.50;47.30
7900;DHT22;3995;50.856;4.404;2022-07-12T11:26:11;26.50;47.70
7900;DHT22;3995;50.856;4.404;2022-07-12T11:28:42;26.50;48.00
7900;DHT22;3995;50.856;4.404;2022-07-12T11:31:11;26.60;47.50
7900;DHT22;3995;50.856;4.404;2022-07-12T11:33:39;26.60;47.70
7900;DHT22;3995;50.856;4.404;2022-07-12T11:36:08;26.60;48.40
7900;DHT22;3995;50.856;4.404;2022-07-12T11:38:36;26.60;49.50
7900;DHT22;3995;50.856;4.404;2022-07-12T11:41:06;26.60;48.70
7900;DHT22;3995;50.856;4.404;2022-07-12T11:43:36;26.70;48.10
7900;DHT22;3995;50.856;4.404;2022-07-12T11:46:05;26.70;47.30
7900;DHT22;3995;50.856;4.404;2022-07-12T11:48:39;26.80;46.80
7900;DHT22;3995;50.856;4.404;2022-07-12T11:51:09;26.90;47.30
7900;DHT22;3995;50.856;4.404;2022-07-12T11:53:38;26.90;47.50
7900;DHT22;3995;50.856;4.404;2022-07-12T11:56:07;27.00;47.80
7900;DHT22;3995;50.856;4.404;2022-07-12T11:58:35;27.10;47.60
7900;DHT22;3995;50.856;4.404;2022-07-12T12:01:10;27.40;47.00
7900;DHT22;3995;50.856;4.404;2022-07-12T12:03:42;27.90;47.30
7900;DHT22;3995;50.856;4.404;2022-07-12T12:06:09;28.50;46.20
7900;DHT22;3995;50.856;4.404;2022-07-12T12:08:37;29.20;45.80
7900;DHT22;3995;50.856;4.404;2022-07-12T12:11:04;29.70;44.40
7900;DHT22;3995;50.856;4.404;2022-07-12T12:13:32;30.30;40.90
7900;DHT22;3995;50.856;4.404;2022-07-12T12:16:01;30.80;40.90
7900;DHT22;3995;50.856;4.404;2022-07-12T12:18:31;31.20;39.40
7900;DHT22;3995;50.856;4.404;2022-07-12T12:21:02;31.50;39.00
7900;DHT22;3995;50.856;4.404;2022-07-12T12:23:30;31.90;40.70
7900;DHT22;3995;50.856;4.404;2022-07-12T12:26:10;32.00;39.10
7900;DHT22;3995;50.856;4.404;2022-07-12T12:28:42;32.00;39.20
7900;DHT22;3995;50.856;4.404;2022-07-12T12:31:10;31.90;39.30
7900;DHT22;3995;50.856;4.404;2022-07-12T12:33:41;31.70;39.80
7900;DHT22;3995;50.856;4.404;2022-07-12T12:36:27;31.80;38.80
7900;DHT22;3995;50.856;4.404;2022-07-12T12:38:57;31.90;38.20
7900;DHT22;3995;50.856;4.404;2022-07-12T12:41:25;32.10;38.10
7900;DHT22;3995;50.856;4.404;2022-07-12T12:44:00;32.30;38.70
7900;DHT22;3995;50.856;4.404;2022-07-12T12:46:44;32.30;38.50
7900;DHT22;3995;50.856;4.404;2022-07-12T12:49:12;32.40;38.50
7900;DHT22;3995;50.856;4.404;2022-07-12T12:51:57;32.60;38.60
7900;DHT22;3995;50.856;4.404;2022-07-12T12:54:34;32.70;38.20
7900;DHT22;3995;50.856;4.404;2022-07-12T12:57:03;32.70;37.80
7900;DHT22;3995;50.856;4.404;2022-07-12T12:59:30;32.90;37.80
7900;DHT22;3995;50.856;4.404;2022-07-12T13:01:57;33.10;37.60
7900;DHT22;3995;50.856;4.404;2022-07-12T13:04:28;33.20;38.60
7900;DHT22;3995;50.856;4.404;2022-07-12T13:06:56;33.20;37.10
7900;DHT22;3995;50.856;4.404;2022-07-12T13:09:23;33.20;37.40
7900;DHT22;3995;50.856;4.404;2022-07-12T13:11:50;33.20;37.70
7900;DHT22;3995;50.856;4.404;2022-07-12T13:14:18;33.20;37.90
7900;DHT22;3995;50.856;4.404;2022-07-12T13:16:45;33.10;36.40
7900;DHT22;3995;50.856;4.404;2022-07-12T13:19:12;33.10;36.50
7900;DHT22;3995;50.856;4.404;2022-07-12T13:21:41;33.00;36.10
7900;DHT22;3995;50.856;4.404;2022-07-12T13:24:08;32.80;37.10
7900;DHT22;3995;50.856;4.404;2022-07-12T13:26:35;32.60;37.20
7900;DHT22;3995;50.856;4.404;2022-07-12T13:29:03;32.40;37.70
7900;DHT22;3995;50.856;4.404;2022-07-12T13:31:30;32.20;38.00
7900;DHT22;3995;50.856;4.404;2022-07-12T13:33:57;32.10;37.40
7900;DHT22;3995;50.856;4.404;2022-07-12T13:36:24;32.00;37.70
7900;DHT22;3995;50.856;4.404;2022-07-12T13:38:54;31.80;37.30
7900;DHT22;3995;50.856;4.404;2022-07-12T13:41:41;31.70;38.10
7900;DHT22;3995;50.856;4.404;2022-07-12T13:44:08;31.60;39.50
7900;DHT22;3995;50.856;4.404;2022-07-12T13:46:35;31.50;39.00
7900;DHT22;3995;50.856;4.404;2022-07-12T13:49:03;31.40;38.20
7900;DHT22;3995;50.856;4.404;2022-07-12T13:51:30;31.30;38.00
7900;DHT22;3995;50.856;4.404;2022-07-12T13:53:59;31.30;39.00
7900;DHT22;3995;50.856;4.404;2022-07-12T13:56:26;31.30;39.30
7900;DHT22;3995;50.856;4.404;2022-07-12T13:58:54;31.30;39.20
7900;DHT22;3995;50.856;4.404;2022-07-12T14:01:21;31.30;37.20
7900;DHT22;3995;50.856;4.404;2022-07-12T14:03:49;31.30;38.20
7900;DHT22;3995;50.856;4.404;2022-07-12T14:06:16;31.20;38.20
7900;DHT22;3995;50.856;4.404;2022-07-12T14:08:43;31.20;37.80
7900;DHT22;3995;50.856;4.404;2022-07-12T14:11:12;31.00;38.10
7900;DHT22;3995;50.856;4.404;2022-07-12T14:13:40;30.90;38.90
7900;DHT22;3995;50.856;4.404;2022-07-12T14:16:07;30.70;37.60
7900;DHT22;3995;50.856;4.404;2022-07-12T14:18:34;30.60;36.10
7900;DHT22;3995;50.856;4.404;2022-07-12T14:21:01;30.60;36.00
7900;DHT22;3995;50.856;4.404;2022-07-12T14:23:29;30.60;37.50
7900;DHT22;3995;50.856;4.404;2022-07-12T14:25:56;30.50;39.10
7900;DHT22;3995;50.856;4.404;2022-07-12T14:28:25;30.50;40.00
7900;DHT22;3995;50.856;4.404;2022-07-12T14:30:52;30.40;38.70
7900;DHT22;3995;50.856;4.404;2022-07-12T14:33:19;30.50;40.10
7900;DHT22;3995;50.856;4.404;2022-07-12T14:35:47;30.50;39.40
7900;DHT22;3995;50.856;4.404;2022-07-12T14:38:14;30.60;40.60
7900;DHT22;3995;50.856;4.404;2022-07-12T14:40:41;30.60;40.00
7900;DHT22;3995;50.856;4.404;2022-07-12T14:43:09;30.70;40.10
7900;DHT22;3995;50.856;4.404;2022-07-12T14:45:38;30.70;39.90
7900;DHT22;3995;50.856;4.404;2022-07-12T14:48:16;30.80;40.60
7900;DHT22;3995;50.856;4.404;2022-07-12T14:50:43;31.00;39.90
7900;DHT22;3995;50.856;4.404;2022-07-12T14:53:11;31.00;40.10
7900;DHT22;3995;50.856;4.404;2022-07-12T14:55:38;31.10;37.50
7900;DHT22;3995;50.856;4.404;2022-07-12T14:58:05;31.10;36.50
7900;DHT22;3995;50.856;4.404;2022-07-12T15:00:34;31.10;35.60
7900;DHT22;3995;50.856;4.404;2022-07-12T15:03:03;31.10;35.70
7900;DHT22;3995;50.856;4.404;2022-07-12T15:05:31;31.20;36.20
7900;DHT22;3995;50.856;4.404;2022-07-12T15:07:58;31.20;36.10
7900;DHT22;3995;50.856;4.404;2022-07-12T15:10:25;31.20;35.60
7900;DHT22;3995;50.856;4.404;2022-07-12T15:12:53;31.20;35.80
7900;DHT22;3995;50.856;4.404;2022-07-12T15:15:20;31.30;36.40
7900;DHT22;3995;50.856;4.404;2022-07-12T15:17:47;31.30;37.00
7900;DHT22;3995;50.856;4.404;2022-07-12T15:20:15;31.30;38.30
7900;DHT22;3995;50.856;4.404;2022-07-12T15:22:43;31.20;37.60
7900;DHT22;3995;50.856;4.404;2022-07-12T15:25:10;31.20;36.50
7900;DHT22;3995;50.856;4.404;2022-07-12T15:27:37;31.20;36.40
7900;DHT22;3995;50.856;4.404;2022-07-12T15:30:05;31.20;37.80
7900;DHT22;3995;50.856;4.404;2022-07-12T15:32:33;31.10;38.20
7900;DHT22;3995;50.856;4.404;2022-07-12T15:35:00;31.10;37.80
7900;DHT22;3995;50.856;4.404;2022-07-12T15:37:29;31.00;38.90
7900;DHT22;3995;50.856;4.404;2022-07-12T15:39:56;31.00;39.40
7900;DHT22;3995;50.856;4.404;2022-07-12T15:42:25;31.00;38.60
7900;DHT22;3995;50.856;4.404;2022-07-12T15:44:52;30.90;38.30
7900;DHT22;3995;50.856;4.404;2022-07-12T15:47:20;30.80;38.90
7900;DHT22;3995;50.856;4.404;2022-07-12T15:49:47;30.80;39.60
7900;DHT22;3995;50.856;4.404;2022-07-12T15:52:14;30.70;38.90
7900;DHT22;3995;50.856;4.404;2022-07-12T15:55:01;30.70;38.50
7900;DHT22;3995;50.856;4.404;2022-07-12T15:57:28;30.60;38.00
7900;DHT22;3995;50.856;4.404;2022-07-12T15:59:56;30.60;38.90
7900;DHT22;3995;50.856;4.404;2022-07-12T16:02:23;30.50;38.10
7900;DHT22;3995;50.856;4.404;2022-07-12T16:04:50;30.50;36.20
7900;DHT22;3995;50.856;4.404;2022-07-12T16:07:18;30.40;34.70
7900;DHT22;3995;50.856;4.404;2022-07-12T16:09:45;30.40;34.40
7900;DHT22;3995;50.856;4.404;2022-07-12T16:12:14;30.30;33.30
7900;DHT22;3995;50.856;4.404;2022-07-12T16:14:41;30.30;33.00
7900;DHT22;3995;50.856;4.404;2022-07-12T16:17:08;30.30;33.70